Denver International Airport
KDEN : now visible

Aeroporto :











RITROVATECI SU...

 
LOGIN :

Iscrizione | Disclaimer

   EN    FR    IT 

 









Sommario :    VFR   VFR Marginale   IFR   IFR Intensivo   IFR Molto Intensivo
Visibilità : 
Base nubi : 
>= 8 km
>= 3000ft
5 / 8 km
1000 / 3000 ft
1500m / 5 km
500 / 1000 ft
800 / 1500m
200 / 500 ft
< 800m
< 200 ft
Simboli :   Temporali  Nebbia  Neve Forte  Precipitazioni Forti  Vento > 20 kt







- Altitudine del aeroporto : 5431 ft
- Codice IATA : DEN


KDEN - Denver International

ULTIMO METAR :
  • 201353Z 22009KT 10SM FEW130 SCT160 BKN240 15/M03 A2996 RMK AO2 SLP089 T01501033

METARs OBSOLETI :
  • 201253Z 21009KT 10SM FEW120 BKN160 BKN240 10/M02 A2994 RMK AO2 SLP085 T01001022
  • 201153Z 22010KT 10SM FEW120 FEW180 BKN250 11/M03 A2994 RMK AO2 SLP078 T01061028 10139 20100 55002

TAF KDEN
Valido dal 20 a 12 ore il 21 a 18 ore UTC


201133Z 2012/2118 21012KT P6SM FEW120 SCT220
FM201400 23008KT P6SM FEW120 SCT220
FM202000 13010KT P6SM SCT120 BKN200
FM210100 26012G18KT P6SM SCT110 BKN180
FM210600 32012KT P6SM SCT100 BKN140
FM211400 29010KT P6SM SCT070 BKN120
PROB30 2114/2118 -SHRA BKN060
FIR KZDV / America del Nord



MetMap, La meteo Aeronautica in un colpo d'occhio ! - Copyright ORBIFLY Dicembre 2007 - Disclaimer

ORBIFLY MET'MAP TEAM :

Programmazione e sviluppo : Alexandra Zaïnal
Concezione e sviluppo : Baudouin d'Aumeries
Co-Programmazione e sviluppo : Marc-Olivier Méhu
Supporto tecnico e logistico : Manuel Goepfert
Aiuto per la traduzione : Arnaldo La Scala

Contatto : metmap@orbifly.com




FONTI E CREDITI :

   NOAA       Earth
Advisory